KIOB

Mount Sterling-Montgomery County Airport

Mount Sterling, Kentucky, USA
METAR KIOB 271155Z AUTO 22005KT 10SM CLR 21/20 A2998 RMK AO2
Observed Flight Rules
May-27 @ 11:55 UTC (12 minutes ago) Visual Flight Rules
Wind Visibility Clouds
220° at 5 knots 10 miles
  • Clear skies
Temperatures Readings
Current 21°C / 70°F
Dewpoint 20°C / 68°F
Humidity 94%
Altimeter 29.98" Hg
Pressure 1015 hPa
Elevation 311
METAR KIOB 271155Z AUTO 22005KT 10SM CLR 21/20 A2998 RMK AO2
Observed Flight Rules
May-27 @ 11:55 UTC
(12 minutes ago)
VFR
Wind Visibility
220° at 5 knots 10 miles
Clouds
  • Clear skies
Temperature Dewpoint
21°C / 70°F 20°C / 68°F
Humidity Altimeter Pressure
94% 29.98" Hg 1015 hPa